Time;durP1;ratioP1;P1;durP2;ratioP2;P2;SDS_P1;SDS_P2;PMS_P1;PMS_P2;Temp;Humidity;BMP_temperature;BMP_pressure;BME280_temperature;BME280_humidity;BME280_pressure;Samples;Min_cycle;Max_cycle;Signal;HPM_P1;HPM_P2
2023/10/22 00:02:02;;;;;;;;;;;13.40;99.90;;;;;;4954590;28;19918;-66
2023/10/22 00:04:27;;;;;;;;;;;13.50;99.90;;;;;;4954742;28;19933;-66
2023/10/22 00:06:53;;;;;;;;;;;13.40;99.90;;;;;;4955679;28;20453;-65
2023/10/22 00:09:18;;;;;;;;;;;13.60;99.90;;;;;;4955184;28;19918;-66
2023/10/22 00:11:44;;;;;;;;;;;13.60;99.90;;;;;;4956501;28;19918;-66
2023/10/22 00:14:09;;;;;;;;;;;13.60;99.90;;;;;;4958660;28;19910;-66
2023/10/22 00:16:35;;;;;;;;;;;13.60;99.90;;;;;;4958337;28;19949;-65
2023/10/22 00:19:00;;;;;;;;;;;13.60;99.90;;;;;;4958517;28;19918;-66
2023/10/22 00:21:26;;;;;;;;;;;13.70;99.90;;;;;;4958831;28;19918;-66
2023/10/22 00:23:51;;;;;;;;;;;13.60;99.90;;;;;;4958848;28;19910;-66
2023/10/22 00:26:17;;;;;;;;;;;13.60;99.90;;;;;;4958522;28;20381;-66
2023/10/22 00:28:42;;;;;;;;;;;13.50;99.90;;;;;;4958382;28;20267;-66
2023/10/22 00:31:08;;;;;;;;;;;13.40;99.90;;;;;;4958232;28;20281;-65
2023/10/22 00:33:33;;;;;;;;;;;13.30;99.90;;;;;;4958337;28;19938;-66
2023/10/22 00:35:58;;;;;;;;;;;13.20;99.90;;;;;;4958105;28;19914;-66
2023/10/22 00:38:25;;;;;;;;;;;13.20;99.90;;;;;;4958364;28;19910;-66
2023/10/22 00:40:50;;;;;;;;;;;13.10;99.90;;;;;;4956961;29;19999;-65
2023/10/22 00:43:16;;;;;;;;;;;13.00;99.90;;;;;;4958212;28;19965;-65
2023/10/22 00:45:42;;;;;;;;;;;13.00;99.90;;;;;;4958039;28;19910;-65
2023/10/22 00:48:08;;;;;;;;;;;13.00;99.90;;;;;;4957965;28;19918;-66
2023/10/22 00:50:34;;;;;;;;;;;12.90;99.90;;;;;;4958344;28;20284;-66
2023/10/22 00:53:00;;;;;;;;;;;12.80;99.90;;;;;;4958252;28;19910;-65
2023/10/22 00:55:25;;;;;;;;;;;12.80;99.90;;;;;;4958093;28;20272;-65
2023/10/22 00:57:51;;;;;;;;;;;12.80;99.90;;;;;;4958283;28;19921;-67
2023/10/22 01:00:18;;;;;;;;;;;13.00;99.90;;;;;;4957814;28;19917;-66
2023/10/22 01:02:43;;;;;;;;;;;12.90;99.90;;;;;;4957643;28;19926;-66
2023/10/22 01:05:09;;;;;;;;;;;12.80;99.90;;;;;;4957959;28;20376;-65
2023/10/22 01:07:34;;;;;;;;;;;12.90;99.90;;;;;;4957871;28;19919;-66
2023/10/22 01:10:00;;;;;;;;;;;12.80;99.90;;;;;;4957759;28;19922;-66
2023/10/22 01:12:32;;;;;;;;;;;12.70;99.90;;;;;;4957628;28;19910;-66
2023/10/22 01:14:57;;;;;;;;;;;12.70;99.90;;;;;;4957885;28;19911;-65
2023/10/22 01:17:23;;;;;;;;;;;12.60;99.90;;;;;;4957414;28;19917;-65
2023/10/22 01:19:48;;;;;;;;;;;12.50;99.90;;;;;;4957462;28;20005;-66
2023/10/22 01:22:14;;;;;;;;;;;12.50;99.90;;;;;;4957054;28;19958;-65
2023/10/22 01:24:39;;;;;;;;;;;12.50;99.90;;;;;;4958074;28;19910;-66
2023/10/22 01:27:04;;;;;;;;;;;12.50;99.90;;;;;;4958006;28;19914;-66
2023/10/22 01:29:30;;;;;;;;;;;12.50;99.90;;;;;;4957686;28;19964;-65
2023/10/22 01:31:55;;;;;;;;;;;12.50;99.90;;;;;;4956969;28;20050;-65
2023/10/22 01:34:21;;;;;;;;;;;12.60;99.90;;;;;;4957093;28;19918;-65
2023/10/22 01:36:47;;;;;;;;;;;12.60;99.90;;;;;;4957589;28;19910;-65
2023/10/22 01:39:14;;;;;;;;;;;12.50;99.90;;;;;;4957991;28;19910;-65
2023/10/22 01:41:41;;;;;;;;;;;12.50;99.90;;;;;;4957526;28;20001;-65
2023/10/22 01:44:06;;;;;;;;;;;12.50;99.90;;;;;;4957105;28;20397;-65
2023/10/22 01:46:32;;;;;;;;;;;12.50;99.90;;;;;;4956694;28;19915;-65
2023/10/22 01:48:58;;;;;;;;;;;12.40;99.90;;;;;;4955578;29;20005;-65
2023/10/22 01:51:23;;;;;;;;;;;12.40;99.90;;;;;;4957508;28;19985;-65
2023/10/22 01:53:49;;;;;;;;;;;12.40;99.90;;;;;;4956669;28;19910;-65
2023/10/22 01:56:15;;;;;;;;;;;12.30;99.90;;;;;;4955303;29;20027;-66
2023/10/22 01:58:40;;;;;;;;;;;12.40;99.90;;;;;;4956711;28;20001;-65
2023/10/22 02:01:06;;;;;;;;;;;12.30;99.90;;;;;;4956512;28;20078;-66
2023/10/22 02:03:35;;;;;;;;;;;12.30;99.90;;;;;;4956200;28;19994;-65
2023/10/22 02:06:00;;;;;;;;;;;12.30;99.90;;;;;;4956551;28;19950;-65
2023/10/22 02:08:26;;;;;;;;;;;12.20;99.90;;;;;;4956834;28;19911;-65
2023/10/22 02:10:51;;;;;;;;;;;12.20;99.90;;;;;;4956617;28;19917;-65
2023/10/22 02:13:17;;;;;;;;;;;12.20;99.90;;;;;;4956284;28;19968;-66
2023/10/22 02:15:43;;;;;;;;;;;12.30;99.90;;;;;;4956213;28;19910;-66
2023/10/22 02:18:09;;;;;;;;;;;12.30;99.90;;;;;;4956192;28;19910;-65
2023/10/22 02:20:34;;;;;;;;;;;12.20;99.90;;;;;;4956219;28;20293;-66
2023/10/22 02:23:01;;;;;;;;;;;12.30;99.90;;;;;;4956083;28;19968;-65
2023/10/22 02:25:27;;;;;;;;;;;12.20;99.90;;;;;;4956042;28;19910;-66
2023/10/22 02:27:53;;;;;;;;;;;12.20;99.90;;;;;;4956341;28;19914;-65
2023/10/22 02:30:19;;;;;;;;;;;12.20;99.90;;;;;;4955985;28;19917;-65
2023/10/22 02:32:44;;;;;;;;;;;12.30;99.90;;;;;;4955657;28;20305;-66
2023/10/22 02:35:10;;;;;;;;;;;12.40;99.90;;;;;;4955307;28;19918;-65
2023/10/22 02:37:36;;;;;;;;;;;12.40;99.90;;;;;;4955850;28;20267;-65
2023/10/22 02:40:01;;;;;;;;;;;12.40;99.90;;;;;;4956006;28;19911;-66
2023/10/22 02:42:27;;;;;;;;;;;12.40;99.90;;;;;;4955721;28;19914;-64
2023/10/22 02:44:52;;;;;;;;;;;12.40;99.90;;;;;;4957212;28;19911;-65
2023/10/22 02:47:18;;;;;;;;;;;12.40;99.90;;;;;;4956058;28;19922;-66
2023/10/22 02:49:43;;;;;;;;;;;12.50;99.90;;;;;;4956288;28;20390;-66
2023/10/22 02:52:09;;;;;;;;;;;12.40;99.90;;;;;;4955996;28;20405;-66
2023/10/22 02:54:34;;;;;;;;;;;12.30;99.90;;;;;;4955921;28;20292;-66
2023/10/22 02:57:00;;;;;;;;;;;12.30;99.90;;;;;;4955745;28;19943;-66
2023/10/22 02:59:25;;;;;;;;;;;12.20;99.90;;;;;;4955686;28;20332;-67
2023/10/22 03:01:51;;;;;;;;;;;12.30;99.90;;;;;;4955177;28;19914;-65
2023/10/22 03:04:16;;;;;;;;;;;12.30;99.90;;;;;;4956236;28;19910;-65
2023/10/22 03:06:42;;;;;;;;;;;12.20;99.90;;;;;;4955547;28;20396;-66
2023/10/22 03:09:07;;;;;;;;;;;12.20;99.90;;;;;;4955469;28;19914;-66
2023/10/22 03:11:33;;;;;;;;;;;12.20;99.90;;;;;;4955357;28;19918;-65
2023/10/22 03:13:58;;;;;;;;;;;12.10;99.90;;;;;;4955550;28;20408;-66
2023/10/22 03:16:23;;;;;;;;;;;12.10;99.90;;;;;;4955796;28;20388;-64
2023/10/22 03:18:50;;;;;;;;;;;12.00;99.90;;;;;;4955626;28;19911;-66
2023/10/22 03:21:19;;;;;;;;;;;12.00;99.90;;;;;;4955439;28;19911;-66
2023/10/22 03:23:45;;;;;;;;;;;12.00;99.90;;;;;;4955235;28;19953;-66
2023/10/22 03:26:18;;;;;;;;;;;12.00;99.90;;;;;;4955318;28;19969;-66
2023/10/22 03:28:44;;;;;;;;;;;12.00;99.90;;;;;;4955332;28;20401;-66
2023/10/22 03:31:09;;;;;;;;;;;12.10;99.90;;;;;;4955293;28;19910;-66
2023/10/22 03:33:35;;;;;;;;;;;12.10;99.90;;;;;;4954981;28;19911;-66
2023/10/22 03:36:00;;;;;;;;;;;12.20;99.90;;;;;;4955270;28;19914;-66
2023/10/22 03:38:26;;;;;;;;;;;12.10;99.90;;;;;;4954860;28;19953;-66
2023/10/22 03:41:02;;;;;;;;;;;12.20;99.90;;;;;;4955432;28;19945;-65
2023/10/22 03:43:28;;;;;;;;;;;12.30;99.90;;;;;;4955142;28;19910;-66
2023/10/22 03:45:56;;;;;;;;;;;12.30;99.90;;;;;;4957100;28;19960;-66
2023/10/22 03:48:22;;;;;;;;;;;12.30;99.90;;;;;;4959089;28;19915;-66
2023/10/22 03:50:47;;;;;;;;;;;12.40;99.90;;;;;;4959124;28;19910;-66
2023/10/22 03:53:13;;;;;;;;;;;12.40;99.90;;;;;;4959065;28;19911;-65
2023/10/22 03:55:38;;;;;;;;;;;12.40;99.90;;;;;;4959370;28;19910;-64
2023/10/22 03:58:04;;;;;;;;;;;12.40;99.90;;;;;;4959477;28;19911;-66
2023/10/22 04:00:29;;;;;;;;;;;12.50;99.90;;;;;;4960016;28;19969;-66
2023/10/22 04:02:55;;;;;;;;;;;12.50;99.90;;;;;;4959896;28;19918;-66
2023/10/22 04:05:20;;;;;;;;;;;12.40;99.90;;;;;;4960544;28;19918;-66
2023/10/22 04:07:45;;;;;;;;;;;12.50;99.90;;;;;;4960218;28;19915;-66
2023/10/22 04:10:11;;;;;;;;;;;12.50;99.90;;;;;;4975758;23;19928;-64
2023/10/22 04:12:36;;;;;;;;;;;12.40;99.90;;;;;;4959640;28;19994;-65
2023/10/22 04:15:03;;;;;;;;;;;12.40;99.90;;;;;;4958896;28;19911;-65
2023/10/22 04:17:28;;;;;;;;;;;12.30;99.90;;;;;;4958954;28;19911;-65
2023/10/22 04:19:54;;;;;;;;;;;12.20;99.90;;;;;;4959622;28;19915;-65
2023/10/22 04:22:19;;;;;;;;;;;12.20;99.90;;;;;;4958664;28;19918;-65
2023/10/22 04:24:45;;;;;;;;;;;12.20;99.90;;;;;;4958536;28;19921;-65
2023/10/22 04:27:11;;;;;;;;;;;12.10;99.90;;;;;;4973007;28;19925;-65
2023/10/22 04:29:37;;;;;;;;;;;12.00;99.90;;;;;;4957253;29;20428;-64
2023/10/22 04:32:02;;;;;;;;;;;12.10;99.90;;;;;;4957034;28;20384;-65
2023/10/22 04:34:28;;;;;;;;;;;12.00;99.90;;;;;;4958570;28;20293;-65
2023/10/22 04:36:54;;;;;;;;;;;12.00;99.90;;;;;;4958232;28;19911;-65
2023/10/22 04:39:19;;;;;;;;;;;12.10;99.90;;;;;;4958154;28;19911;-65
2023/10/22 04:41:45;;;;;;;;;;;12.20;99.90;;;;;;4968191;28;19910;-65
2023/10/22 04:44:10;;;;;;;;;;;12.10;99.90;;;;;;4977932;28;20380;-65
2023/10/22 04:46:36;;;;;;;;;;;12.10;99.90;;;;;;4977399;28;19914;-65
2023/10/22 04:49:01;;;;;;;;;;;12.00;99.90;;;;;;4977321;28;19990;-65
2023/10/22 04:51:27;;;;;;;;;;;12.20;99.90;;;;;;4975953;28;19914;-65
2023/10/22 04:53:52;;;;;;;;;;;12.20;99.90;;;;;;4975944;28;19910;-65
2023/10/22 04:56:18;;;;;;;;;;;12.30;99.90;;;;;;4976819;28;19911;-65
2023/10/22 04:58:43;;;;;;;;;;;12.30;99.90;;;;;;4975228;28;19918;-65
2023/10/22 05:01:09;;;;;;;;;;;12.30;99.90;;;;;;4976904;28;19914;-65
2023/10/22 05:03:34;;;;;;;;;;;12.20;99.90;;;;;;4976231;28;19911;-67
2023/10/22 05:06:04;;;;;;;;;;;12.20;99.90;;;;;;4977110;28;19914;-65
2023/10/22 05:08:29;;;;;;;;;;;12.20;99.90;;;;;;4977287;28;20366;-65
2023/10/22 05:10:55;;;;;;;;;;;12.20;99.90;;;;;;4976648;28;19961;-65
2023/10/22 05:13:22;;;;;;;;;;;12.30;99.90;;;;;;4977027;28;20048;-64
2023/10/22 05:15:51;;;;;;;;;;;12.30;99.90;;;;;;4976890;28;20379;-64
2023/10/22 05:18:17;;;;;;;;;;;12.40;99.90;;;;;;4977389;28;20361;-65
2023/10/22 05:20:42;;;;;;;;;;;12.30;99.90;;;;;;4975877;28;20013;-65
2023/10/22 05:23:08;;;;;;;;;;;12.30;99.90;;;;;;4976431;28;20009;-65
2023/10/22 05:25:33;;;;;;;;;;;12.30;99.90;;;;;;4977072;28;19964;-65
2023/10/22 05:27:59;;;;;;;;;;;12.20;99.90;;;;;;4976315;28;19914;-65
2023/10/22 05:30:24;;;;;;;;;;;12.30;99.90;;;;;;4975602;28;19911;-65
2023/10/22 05:32:50;;;;;;;;;;;12.20;99.90;;;;;;4975259;28;20049;-65
2023/10/22 05:35:16;;;;;;;;;;;12.20;99.90;;;;;;4976613;28;20012;-64
2023/10/22 05:37:43;;;;;;;;;;;12.20;99.90;;;;;;4976343;28;19949;-65
2023/10/22 05:40:11;;;;;;;;;;;12.20;99.90;;;;;;4976326;28;19910;-66
2023/10/22 05:42:37;;;;;;;;;;;12.30;99.90;;;;;;4976517;28;19917;-65
2023/10/22 05:45:04;;;;;;;;;;;12.30;99.90;;;;;;4976442;28;19910;-65
2023/10/22 05:47:31;;;;;;;;;;;12.10;99.90;;;;;;4976110;28;19918;-65
2023/10/22 05:49:58;;;;;;;;;;;12.00;99.90;;;;;;4974945;28;20336;-66
2023/10/22 05:52:25;;;;;;;;;;;12.00;99.90;;;;;;4977070;28;19914;-65
2023/10/22 05:54:53;;;;;;;;;;;12.10;99.90;;;;;;4976313;28;19916;-65
2023/10/22 05:57:21;;;;;;;;;;;12.10;99.90;;;;;;4975810;28;20333;-65
2023/10/22 05:59:46;;;;;;;;;;;12.20;99.90;;;;;;4975358;28;19910;-65
2023/10/22 06:02:12;;;;;;;;;;;12.30;99.90;;;;;;4975953;28;19910;-66
2023/10/22 06:04:37;;;;;;;;;;;12.20;99.90;;;;;;4974445;28;19937;-65
2023/10/22 06:07:04;;;;;;;;;;;12.20;99.90;;;;;;4976932;28;19981;-66
2023/10/22 06:09:29;;;;;;;;;;;12.10;99.90;;;;;;4976198;28;19910;-65
2023/10/22 06:11:55;;;;;;;;;;;12.20;99.90;;;;;;4975977;28;19918;-65
2023/10/22 06:14:20;;;;;;;;;;;12.30;99.90;;;;;;4975943;28;19910;-65
2023/10/22 06:16:46;;;;;;;;;;;12.30;99.90;;;;;;4976010;28;19945;-64
2023/10/22 06:19:13;;;;;;;;;;;12.30;99.90;;;;;;4976198;28;19996;-65
2023/10/22 06:21:38;;;;;;;;;;;12.20;99.90;;;;;;4974452;28;19910;-65
2023/10/22 06:24:04;;;;;;;;;;;12.20;99.90;;;;;;4975857;28;19910;-65
2023/10/22 06:26:30;;;;;;;;;;;12.40;99.90;;;;;;4975439;28;20341;-65
2023/10/22 06:28:55;;;;;;;;;;;12.50;99.90;;;;;;4975614;28;19910;-66
2023/10/22 06:31:20;;;;;;;;;;;12.50;99.90;;;;;;4975652;28;19953;-65
2023/10/22 06:33:46;;;;;;;;;;;12.50;99.90;;;;;;4975483;28;19960;-65
2023/10/22 06:36:14;;;;;;;;;;;12.60;99.90;;;;;;4975575;28;20349;-66
2023/10/22 06:38:40;;;;;;;;;;;12.70;99.90;;;;;;4961569;28;20421;-66
2023/10/22 06:41:11;;;;;;;;;;;12.70;99.90;;;;;;4960793;28;19918;-66
2023/10/22 06:43:36;;;;;;;;;;;12.90;99.90;;;;;;4974039;28;19916;-66
2023/10/22 06:46:02;;;;;;;;;;;12.90;99.90;;;;;;4974789;28;19918;-68
2023/10/22 06:48:27;;;;;;;;;;;13.00;99.90;;;;;;4964726;28;19946;-65
2023/10/22 06:50:53;;;;;;;;;;;13.10;99.90;;;;;;4956021;28;19914;-65
2023/10/22 06:53:18;;;;;;;;;;;13.20;99.90;;;;;;4958114;28;19918;-65
2023/10/22 06:55:44;;;;;;;;;;;13.30;99.90;;;;;;4975378;28;20361;-65
2023/10/22 06:58:09;;;;;;;;;;;13.40;99.90;;;;;;4974743;28;20380;-64
2023/10/22 07:00:34;;;;;;;;;;;13.50;99.90;;;;;;4974080;28;20233;-64
2023/10/22 07:03:00;;;;;;;;;;;13.70;99.90;;;;;;4974990;28;19996;-65
2023/10/22 07:05:25;;;;;;;;;;;13.70;99.90;;;;;;4974904;28;20391;-65
2023/10/22 07:07:51;;;;;;;;;;;13.70;99.90;;;;;;4975665;28;20381;-65
2023/10/22 07:10:16;;;;;;;;;;;13.70;99.90;;;;;;4974975;28;19921;-64
2023/10/22 07:12:42;;;;;;;;;;;13.70;99.90;;;;;;4956778;28;20005;-64
2023/10/22 07:15:09;;;;;;;;;;;13.60;99.90;;;;;;4955637;28;19911;-64
2023/10/22 07:17:34;;;;;;;;;;;13.60;99.90;;;;;;4957435;28;19918;-65
2023/10/22 07:20:00;;;;;;;;;;;13.50;99.90;;;;;;4954025;28;19911;-65
2023/10/22 07:22:25;;;;;;;;;;;13.40;99.90;;;;;;4955455;28;19997;-65
2023/10/22 07:24:51;;;;;;;;;;;13.50;99.90;;;;;;4955895;28;19911;-65
2023/10/22 07:27:16;;;;;;;;;;;13.50;99.90;;;;;;4955952;28;19946;-64
2023/10/22 07:29:42;;;;;;;;;;;13.60;99.90;;;;;;4984231;28;19910;-65
2023/10/22 07:32:07;;;;;;;;;;;13.50;99.90;;;;;;4954774;28;20016;-64
2023/10/22 07:34:33;;;;;;;;;;;13.50;99.90;;;;;;4968409;28;20249;-66
2023/10/22 07:36:58;;;;;;;;;;;13.50;99.90;;;;;;4974672;28;20001;-65
2023/10/22 07:39:24;;;;;;;;;;;13.50;99.90;;;;;;4974890;28;19910;-67
2023/10/22 07:41:49;;;;;;;;;;;13.40;99.90;;;;;;4974240;28;19957;-65
2023/10/22 07:44:14;;;;;;;;;;;13.40;99.90;;;;;;4975306;28;19965;-64
2023/10/22 07:46:41;;;;;;;;;;;13.40;99.90;;;;;;4974217;28;20008;-64
2023/10/22 07:49:07;;;;;;;;;;;13.30;99.90;;;;;;4965374;28;19937;-68
2023/10/22 07:51:34;;;;;;;;;;;13.40;99.90;;;;;;4969115;28;20364;-65
2023/10/22 07:53:59;;;;;;;;;;;13.70;99.90;;;;;;4954458;28;19934;-65
2023/10/22 07:56:25;;;;;;;;;;;14.00;99.90;;;;;;4962401;28;20336;-65
2023/10/22 07:58:50;;;;;;;;;;;14.10;99.90;;;;;;4960132;28;19957;-65
2023/10/22 08:01:16;;;;;;;;;;;14.20;99.90;;;;;;4967967;28;19915;-67
2023/10/22 08:03:42;;;;;;;;;;;14.10;99.90;;;;;;4974012;28;19918;-66
2023/10/22 08:06:07;;;;;;;;;;;14.10;99.90;;;;;;4974316;28;19914;-65
2023/10/22 08:08:33;;;;;;;;;;;14.10;99.90;;;;;;4972899;28;19910;-65
2023/10/22 08:10:59;;;;;;;;;;;14.00;99.90;;;;;;4973997;28;19917;-64
2023/10/22 08:13:25;;;;;;;;;;;14.10;99.90;;;;;;4973905;28;20069;-65
2023/10/22 08:15:51;;;;;;;;;;;14.10;99.90;;;;;;4972429;28;20503;-66
2023/10/22 08:18:16;;;;;;;;;;;14.10;99.90;;;;;;4974241;28;20376;-66
2023/10/22 08:20:42;;;;;;;;;;;14.20;99.90;;;;;;4973807;28;20031;-65
2023/10/22 08:23:07;;;;;;;;;;;14.20;99.90;;;;;;4974071;28;19917;-65
2023/10/22 08:25:33;;;;;;;;;;;14.40;99.90;;;;;;4974082;28;20395;-66
2023/10/22 08:27:59;;;;;;;;;;;14.50;99.90;;;;;;4972536;28;19921;-64
2023/10/22 08:30:24;;;;;;;;;;;14.50;99.90;;;;;;4972660;28;19965;-64
2023/10/22 08:32:50;;;;;;;;;;;14.60;99.90;;;;;;4973998;28;19917;-64
2023/10/22 08:35:16;;;;;;;;;;;14.80;99.90;;;;;;4977811;28;20335;-64
2023/10/22 08:37:41;;;;;;;;;;;14.70;99.90;;;;;;4977143;28;19997;-72
2023/10/22 08:40:08;;;;;;;;;;;14.80;99.90;;;;;;4977850;28;19910;-68
2023/10/22 08:42:35;;;;;;;;;;;14.90;99.90;;;;;;4976070;28;19921;-68
2023/10/22 08:45:01;;;;;;;;;;;15.00;99.90;;;;;;4977738;28;19933;-67
2023/10/22 08:47:27;;;;;;;;;;;15.20;99.90;;;;;;4977494;28;20364;-68
2023/10/22 08:49:54;;;;;;;;;;;15.30;99.90;;;;;;4976274;28;19918;-68
2023/10/22 08:52:19;;;;;;;;;;;15.40;99.90;;;;;;4976734;28;19918;-67
2023/10/22 08:54:47;;;;;;;;;;;15.30;99.90;;;;;;4977937;28;19910;-67
2023/10/22 08:57:13;;;;;;;;;;;15.20;99.90;;;;;;4976382;28;20461;-66
2023/10/22 08:59:38;;;;;;;;;;;15.30;99.90;;;;;;4977516;28;19945;-68
2023/10/22 09:02:07;;;;;;;;;;;15.40;99.90;;;;;;4977803;28;20013;-68
2023/10/22 09:04:33;;;;;;;;;;;15.40;99.90;;;;;;4975738;28;20381;-68
2023/10/22 09:06:58;;;;;;;;;;;15.40;99.90;;;;;;4977228;28;19918;-68
2023/10/22 09:09:28;;;;;;;;;;;16.20;99.90;;;;;;4977381;28;19918;-68
2023/10/22 09:11:57;;;;;;;;;;;16.80;99.90;;;;;;4975839;28;20333;-68
2023/10/22 09:14:23;;;;;;;;;;;17.10;99.90;;;;;;4976965;28;19910;-68
2023/10/22 09:16:51;;;;;;;;;;;17.10;99.90;;;;;;4976211;28;19917;-68
2023/10/22 09:19:36;;;;;;;;;;;17.00;99.90;;;;;;4967101;28;19914;-68
2023/10/22 09:22:02;;;;;;;;;;;17.10;99.90;;;;;;4957822;28;20382;-68
2023/10/22 09:24:27;;;;;;;;;;;17.30;99.90;;;;;;4957740;28;19921;-67
2023/10/22 09:26:53;;;;;;;;;;;17.30;99.90;;;;;;4966622;28;20422;-64
2023/10/22 09:29:18;;;;;;;;;;;17.80;99.90;;;;;;4975371;28;19910;-64
2023/10/22 09:31:51;;;;;;;;;;;18.50;99.40;;;;;;4975529;28;20060;-65
2023/10/22 09:34:43;;;;;;;;;;;18.50;98.80;;;;;;4976987;28;19910;-66
2023/10/22 09:37:08;;;;;;;;;;;18.20;99.00;;;;;;4975818;28;19910;-66
2023/10/22 09:39:34;;;;;;;;;;;17.90;99.50;;;;;;4977095;28;20266;-70
2023/10/22 09:42:00;;;;;;;;;;;17.60;99.70;;;;;;4976643;28;20301;-68
2023/10/22 09:44:27;;;;;;;;;;;17.60;99.80;;;;;;4976359;28;19917;-68
2023/10/22 09:46:53;;;;;;;;;;;17.50;99.80;;;;;;4976619;28;19914;-69
2023/10/22 09:49:21;;;;;;;;;;;17.60;99.60;;;;;;4976610;28;19949;-69
2023/10/22 09:51:46;;;;;;;;;;;17.80;99.30;;;;;;4975195;28;20391;-70
2023/10/22 09:54:12;;;;;;;;;;;17.80;99.40;;;;;;4976755;28;19910;-63
2023/10/22 09:56:41;;;;;;;;;;;18.00;98.90;;;;;;4976630;28;19910;-72
2023/10/22 09:59:07;;;;;;;;;;;18.10;98.50;;;;;;4975214;28;19949;-72
2023/10/22 10:01:34;;;;;;;;;;;18.60;98.20;;;;;;4975287;28;19981;-73
2023/10/22 10:04:05;;;;;;;;;;;19.80;97.10;;;;;;4976739;28;19917;-73
2023/10/22 10:06:31;;;;;;;;;;;21.00;95.50;;;;;;4974490;28;19914;-71
2023/10/22 10:08:58;;;;;;;;;;;22.00;93.90;;;;;;4957407;28;19961;-73
2023/10/22 10:11:24;;;;;;;;;;;21.90;93.20;;;;;;4989624;23;20403;-69
2023/10/22 10:13:50;;;;;;;;;;;22.90;92.20;;;;;;4994398;28;20291;-69
2023/10/22 10:16:15;;;;;;;;;;;23.50;90.90;;;;;;5011724;28;19910;-69
2023/10/22 10:18:59;;;;;;;;;;;24.20;90.40;;;;;;4996974;28;19913;-71
2023/10/22 10:21:34;;;;;;;;;;;25.20;87.90;;;;;;4991499;28;19914;-67
2023/10/22 10:24:17;;;;;;;;;;;25.90;84.90;;;;;;4988484;28;19914;-69
2023/10/22 10:26:44;;;;;;;;;;;26.60;82.40;;;;;;4990066;28;20006;-67
2023/10/22 10:29:13;;;;;;;;;;;27.20;81.10;;;;;;4989522;28;19918;-67
2023/10/22 10:31:39;;;;;;;;;;;27.60;79.40;;;;;;4995072;28;20283;-67
2023/10/22 10:34:05;;;;;;;;;;;27.30;78.90;;;;;;4992925;28;19913;-68
2023/10/22 10:36:31;;;;;;;;;;;27.30;78.00;;;;;;4994696;28;19909;-68
2023/10/22 10:39:15;;;;;;;;;;;26.90;77.40;;;;;;4995021;28;19910;-65
2023/10/22 10:41:50;;;;;;;;;;;26.60;77.60;;;;;;4991684;28;19932;-66
2023/10/22 10:44:16;;;;;;;;;;;25.20;79.50;;;;;;4993175;28;19910;-66
2023/10/22 10:46:41;;;;;;;;;;;23.10;82.20;;;;;;4995737;28;19918;-70
2023/10/22 10:49:07;;;;;;;;;;;21.80;85.40;;;;;;4995821;28;20065;-70
2023/10/22 10:51:32;;;;;;;;;;;20.80;88.00;;;;;;4994503;28;19961;-69
2023/10/22 10:54:01;;;;;;;;;;;20.00;90.00;;;;;;4995941;28;19910;-69
2023/10/22 10:56:48;;;;;;;;;;;19.80;91.10;;;;;;4994776;28;20261;-70
2023/10/22 10:59:32;;;;;;;;;;;19.30;91.60;;;;;;4994623;28;19913;-69
2023/10/22 11:01:59;;;;;;;;;;;19.10;91.90;;;;;;4997345;28;19914;-69
2023/10/22 11:04:25;;;;;;;;;;;18.70;92.60;;;;;;5000417;28;19949;-69
2023/10/22 11:06:50;;;;;;;;;;;18.50;93.20;;;;;;5000408;28;19921;-71
2023/10/22 11:09:16;;;;;;;;;;;18.40;93.10;;;;;;4999801;28;19910;-72
2023/10/22 11:11:54;;;;;;;;;;;18.30;93.90;;;;;;4994552;28;19918;-69
2023/10/22 11:14:19;;;;;;;;;;;18.10;93.60;;;;;;4995841;28;19997;-71
2023/10/22 11:16:52;;;;;;;;;;;18.00;94.00;;;;;;4996139;28;19950;-71
2023/10/22 11:19:24;;;;;;;;;;;18.10;93.90;;;;;;4996008;28;20287;-69
2023/10/22 11:21:51;;;;;;;;;;;18.00;93.90;;;;;;4993224;28;19917;-67
2023/10/22 11:24:18;;;;;;;;;;;18.00;94.40;;;;;;4994841;28;19910;-67
2023/10/22 11:26:44;;;;;;;;;;;18.00;94.70;;;;;;4993145;28;19914;-66
2023/10/22 11:29:11;;;;;;;;;;;18.00;94.30;;;;;;4994530;28;19917;-67
2023/10/22 11:31:36;;;;;;;;;;;18.00;94.40;;;;;;4994574;28;19917;-67
2023/10/22 11:34:14;;;;;;;;;;;17.90;94.40;;;;;;4994300;28;20004;-67
2023/10/22 11:36:40;;;;;;;;;;;18.00;94.10;;;;;;4994362;28;20299;-68
2023/10/22 11:39:21;;;;;;;;;;;18.00;94.30;;;;;;4994301;28;19914;-68
2023/10/22 11:41:51;;;;;;;;;;;18.00;94.50;;;;;;4993967;28;19917;-68
2023/10/22 11:44:27;;;;;;;;;;;18.10;94.90;;;;;;4993216;28;19909;-68
2023/10/22 11:46:53;;;;;;;;;;;18.20;94.60;;;;;;4994348;28;19960;-68
2023/10/22 11:49:19;;;;;;;;;;;18.30;94.30;;;;;;5009420;28;19910;-69
2023/10/22 11:51:45;;;;;;;;;;;18.30;94.10;;;;;;4994316;28;19968;-68
2023/10/22 11:54:10;;;;;;;;;;;18.30;94.50;;;;;;4994604;28;20372;-67
2023/10/22 11:56:35;;;;;;;;;;;18.30;94.30;;;;;;4994117;28;19972;-68
2023/10/22 11:59:01;;;;;;;;;;;18.40;93.90;;;;;;4994443;28;20419;-69
2023/10/22 12:01:26;;;;;;;;;;;18.50;94.00;;;;;;4994167;28;20394;-67
2023/10/22 12:03:52;;;;;;;;;;;18.50;93.90;;;;;;4994356;28;19960;-67
2023/10/22 12:06:17;;;;;;;;;;;18.40;94.20;;;;;;4992703;28;20336;-70
2023/10/22 12:08:43;;;;;;;;;;;18.20;93.90;;;;;;4996214;28;20032;-69
2023/10/22 12:11:08;;;;;;;;;;;17.90;94.40;;;;;;4997684;28;19918;-69
2023/10/22 12:13:34;;;;;;;;;;;17.90;94.60;;;;;;4996655;28;20368;-66
2023/10/22 12:15:59;;;;;;;;;;;17.90;94.60;;;;;;4986538;28;19921;-67
2023/10/22 12:18:26;;;;;;;;;;;17.80;94.70;;;;;;4978430;28;19993;-68
2023/10/22 12:20:51;;;;;;;;;;;17.80;95.10;;;;;;4977939;28;19922;-62
2023/10/22 12:23:16;;;;;;;;;;;17.80;94.80;;;;;;4978850;28;19910;-66
2023/10/22 12:25:42;;;;;;;;;;;17.80;94.80;;;;;;4980759;28;19910;-68
2023/10/22 12:28:07;;;;;;;;;;;17.90;94.60;;;;;;4976535;28;20006;-67
2023/10/22 12:30:33;;;;;;;;;;;18.20;94.60;;;;;;4978012;28;20288;-66
2023/10/22 12:32:58;;;;;;;;;;;18.60;94.30;;;;;;4977875;28;19914;-66
2023/10/22 12:35:24;;;;;;;;;;;18.60;94.10;;;;;;4976665;28;19945;-66
2023/10/22 12:37:49;;;;;;;;;;;18.50;93.90;;;;;;4977893;28;19910;-66
2023/10/22 12:40:15;;;;;;;;;;;18.60;93.80;;;;;;4990236;28;19914;-66
2023/10/22 12:42:41;;;;;;;;;;;18.50;93.90;;;;;;4996780;28;19941;-66
2023/10/22 12:45:09;;;;;;;;;;;18.50;94.10;;;;;;4997679;28;19914;-67
2023/10/22 12:47:35;;;;;;;;;;;18.50;94.10;;;;;;4997292;28;19914;-68
2023/10/22 12:50:00;;;;;;;;;;;18.50;93.90;;;;;;4995453;28;19910;-69
2023/10/22 12:52:26;;;;;;;;;;;18.60;93.90;;;;;;4997379;28;19910;-68
2023/10/22 12:54:51;;;;;;;;;;;18.60;93.90;;;;;;4997439;28;19951;-69
2023/10/22 12:57:17;;;;;;;;;;;18.50;93.70;;;;;;4996952;28;19917;-69
2023/10/22 12:59:42;;;;;;;;;;;18.40;93.80;;;;;;4997340;28;19917;-68
2023/10/22 13:02:08;;;;;;;;;;;18.50;94.00;;;;;;4996789;28;19953;-68
2023/10/22 13:04:33;;;;;;;;;;;18.70;94.00;;;;;;4996821;28;19910;-68
2023/10/22 13:06:59;;;;;;;;;;;18.70;93.80;;;;;;4996729;28;19914;-68
2023/10/22 13:09:24;;;;;;;;;;;18.70;93.50;;;;;;4996876;28;19920;-67
2023/10/22 13:11:50;;;;;;;;;;;18.70;93.70;;;;;;4996766;28;19921;-65
2023/10/22 13:14:18;;;;;;;;;;;18.70;93.40;;;;;;4997446;28;20377;-65
2023/10/22 13:16:44;;;;;;;;;;;18.60;93.50;;;;;;4996031;28;19942;-66
2023/10/22 13:19:09;;;;;;;;;;;18.50;93.60;;;;;;4996239;28;19910;-64
2023/10/22 13:21:37;;;;;;;;;;;18.40;93.90;;;;;;4988453;28;21478;-63
2023/10/22 13:24:03;;;;;;;;;;;18.40;93.90;;;;;;4994378;28;19914;-63
2023/10/22 13:26:29;;;;;;;;;;;18.40;93.90;;;;;;4996542;28;20331;-67
2023/10/22 13:28:55;;;;;;;;;;;18.60;93.90;;;;;;4996771;28;19909;-67
2023/10/22 13:31:20;;;;;;;;;;;18.60;93.70;;;;;;4996471;28;19914;-69
2023/10/22 13:33:45;;;;;;;;;;;18.60;93.70;;;;;;4996226;28;19914;-69
2023/10/22 13:36:11;;;;;;;;;;;18.50;93.90;;;;;;4984049;28;19914;-68
2023/10/22 13:38:37;;;;;;;;;;;18.30;94.10;;;;;;4975172;28;19910;-68
2023/10/22 13:41:02;;;;;;;;;;;18.20;94.40;;;;;;4995903;28;20261;-69
2023/10/22 13:43:28;;;;;;;;;;;18.10;94.50;;;;;;4996197;28;20329;-69
2023/10/22 13:45:53;;;;;;;;;;;18.10;94.70;;;;;;4994806;28;19910;-70
2023/10/22 13:48:19;;;;;;;;;;;18.00;95.00;;;;;;4996245;28;19946;-69
2023/10/22 13:50:44;;;;;;;;;;;18.00;95.00;;;;;;4995978;28;20253;-67
2023/10/22 13:53:10;;;;;;;;;;;18.10;94.90;;;;;;4996127;28;19996;-70
2023/10/22 13:55:36;;;;;;;;;;;18.00;95.00;;;;;;5011225;28;19914;-66
2023/10/22 13:58:01;;;;;;;;;;;18.10;94.80;;;;;;4985829;28;19918;-66
2023/10/22 14:00:27;;;;;;;;;;;18.00;95.00;;;;;;4976773;28;19954;-63
2023/10/22 14:02:52;;;;;;;;;;;18.00;95.00;;;;;;4982880;28;19914;-66
2023/10/22 14:05:18;;;;;;;;;;;18.00;95.10;;;;;;4996248;28;20430;-65
2023/10/22 14:07:45;;;;;;;;;;;17.90;95.30;;;;;;4997014;28;19913;-65
2023/10/22 14:10:11;;;;;;;;;;;17.80;95.50;;;;;;4995961;28;19910;-65
2023/10/22 14:12:36;;;;;;;;;;;17.70;95.80;;;;;;4995497;28;19918;-65